KGZN

Gregory M Simmons Memorial Airport

Cisco, Texas, USA
METAR KGZN 260340Z AUTO 34011G16KT 10SM VCTS SCT070 BKN095 BKN120 25/15 A3004 RMK AO2 LTG DSNT W-NE
Observed Flight Rules
May-26 @ 03:40 UTC (37 minutes ago) Visual Flight Rules
Wind Visibility Clouds Conditions
340° at 11 knots
 Gusting to 16 knots
10 miles
  • Scattered at 7,000' AGL
  • Broken at 9,500' AGL
  • Broken at 12,000' AGL
  • Area Thunderstorm
Temperatures Readings
Current 25°C / 77°F
Dewpoint 15°C / 59°F
Humidity 54%
Altimeter 30.04" Hg
Pressure 1017 hPa
Elevation 522
METAR KGZN 260340Z AUTO 34011G16KT 10SM VCTS SCT070 BKN095 BKN120 25/15 A3004 RMK AO2 LTG DSNT W-NE
Observed Flight Rules
May-26 @ 03:40 UTC
(37 minutes ago)
VFR
Wind Visibility
340° at 11 knots
 Gusting to 16 knots
10 miles
Clouds
  • Scattered at 7,000' AGL
  • Broken at 9,500' AGL
  • Broken at 12,000' AGL
Conditions
  • Area Thunderstorm
Temperature Dewpoint
25°C / 77°F 15°C / 59°F
Humidity Altimeter Pressure
54% 30.04" Hg 1017 hPa